Terminal Aerodrome Forecast
Issued by NWS Duluth, MN

Home | Current Version | Previous Version | Text Only | Print | Product List | Glossary On
Versions: 1 2 3 4 5 6 7 8 9 10 11 12 13 14 15 16 17 18 19 20 21 22 23 24
000
FTUS43 KDLH 291100 AAB
TAFDLH
TAF AMD
KDLH 291113Z 2911/3006 21012G20KT P6SM SCT070 OVC100
      TEMPO 2911/2914 18015KT 5SM -RASN BKN025
     FM291400 25015G22KT 6SM -RA SCT015 OVC025
     FM291800 32018G32KT P6SM -RA SCT025 OVC035
     FM292000 30020G35KT P6SM BKN040=

USA.gov is the U.S. government's official web portal to all federal, state and local government web resources and services.